createdAt,value
2019-01-25T00:02:21.559Z,-1.81
2019-01-25T00:04:49.998Z,-1.87
2019-01-25T00:07:18.481Z,-1.90
2019-01-25T00:09:46.918Z,-1.79
2019-01-25T00:12:15.465Z,-1.79
2019-01-25T00:14:43.898Z,-1.75
2019-01-25T00:20:20.438Z,-1.72
2019-01-25T00:22:48.874Z,-1.68
2019-01-25T00:25:36.657Z,-1.67
2019-01-25T00:28:05.163Z,-1.66
2019-01-25T00:30:53.066Z,-1.68
2019-01-25T00:33:21.503Z,-1.46
2019-01-25T00:36:09.307Z,-1.38
2019-01-25T00:38:37.725Z,-1.60
2019-01-25T00:41:25.431Z,-1.62
2019-01-25T00:43:53.866Z,-1.55
2019-01-25T00:46:22.310Z,-1.47
2019-01-25T00:48:50.774Z,-1.52
2019-01-25T00:51:19.260Z,-1.47
2019-01-25T00:54:06.995Z,-1.39
2019-01-25T00:59:43.524Z,-1.20
2019-01-25T01:02:31.275Z,-1.35
2019-01-25T01:04:59.769Z,-1.38
2019-01-25T01:07:47.522Z,-1.21
2019-01-25T01:10:55.994Z,-1.26
2019-01-25T01:13:43.620Z,-1.35
2019-01-25T01:16:12.085Z,-1.47
2019-01-25T01:18:40.523Z,-1.43
2019-01-25T01:26:30.660Z,-1.40
2019-01-25T01:28:59.143Z,-1.47
2019-01-25T01:31:27.582Z,-1.35
2019-01-25T01:33:56.018Z,-1.37
2019-01-25T01:38:58.450Z,-1.35
2019-01-25T01:41:26.922Z,-1.41
2019-01-25T01:43:55.359Z,-1.46
2019-01-25T01:46:43.142Z,-1.37
2019-01-25T01:49:11.650Z,-1.40
2019-01-25T01:51:59.298Z,-1.38
2019-01-25T01:54:27.733Z,-1.41
2019-01-25T01:57:15.403Z,-1.37
2019-01-25T02:00:03.159Z,-1.22
2019-01-25T02:02:51.074Z,-1.37
2019-01-25T02:05:59.422Z,-1.44
2019-01-25T02:11:01.940Z,-1.54
2019-01-25T02:13:49.671Z,-1.51
2019-01-25T02:16:18.138Z,-1.46
2019-01-25T02:19:05.891Z,-1.52
2019-01-25T02:21:34.329Z,-1.46
2019-01-25T02:24:02.838Z,-1.55
2019-01-25T02:26:50.546Z,-1.60
2019-01-25T02:29:18.982Z,-1.65
2019-01-25T02:32:06.659Z,-1.50
2019-01-25T02:34:35.110Z,-1.36
2019-01-25T02:37:03.546Z,-1.43
2019-01-25T02:42:25.294Z,-1.42
2019-01-25T02:45:12.948Z,-1.46
2019-01-25T02:50:49.518Z,-1.46
2019-01-25T02:53:17.953Z,-1.35
2019-01-25T02:55:46.394Z,-1.44
2019-01-25T02:58:14.874Z,-1.45
2019-01-25T03:00:43.306Z,-1.42
2019-01-25T03:03:11.745Z,-1.40
2019-01-25T03:05:40.215Z,-1.54
2019-01-25T03:08:08.719Z,-1.47
2019-01-25T03:13:50.551Z,-1.44
2019-01-25T03:16:38.180Z,-1.47
2019-01-25T03:22:00.347Z,-1.42
2019-01-25T03:27:22.019Z,-1.54
2019-01-25T03:29:50.522Z,-1.35
2019-01-25T03:32:18.957Z,-1.43
2019-01-25T03:34:47.394Z,-1.38
2019-01-25T03:40:09.533Z,-1.46
2019-01-25T03:42:57.385Z,-1.44
2019-01-25T03:46:05.734Z,-1.41
2019-01-25T03:56:36.145Z,-1.40
2019-01-25T03:59:44.540Z,-1.40
2019-01-25T04:02:32.166Z,-1.37
2019-01-25T04:07:35.078Z,-1.50
2019-01-25T04:10:43.454Z,-1.32
2019-01-25T04:13:11.891Z,-1.33
2019-01-25T04:21:01.863Z,-1.39
2019-01-25T04:23:30.406Z,-1.42
2019-01-25T04:25:58.846Z,-1.46
2019-01-25T04:28:27.284Z,-1.40
2019-01-25T04:31:15.027Z,-1.45
2019-01-25T04:33:43.493Z,-1.44
2019-01-25T04:36:31.323Z,-1.46
2019-01-25T04:38:59.738Z,-1.43
2019-01-25T04:41:28.173Z,-1.40
2019-01-25T04:43:56.641Z,-1.38
2019-01-25T04:46:25.071Z,-1.45
2019-01-25T04:48:53.506Z,-1.59
2019-01-25T04:51:22.001Z,-1.43
2019-01-25T04:54:09.740Z,-1.47
2019-01-25T04:56:38.358Z,-1.40
2019-01-25T05:02:15.218Z,-1.46
2019-01-25T05:04:43.650Z,-1.35
2019-01-25T05:07:12.082Z,-1.44
2019-01-25T05:10:00.466Z,-1.57
2019-01-25T05:12:28.866Z,-1.53
2019-01-25T05:14:57.306Z,-1.36
2019-01-25T05:17:25.776Z,-1.32
2019-01-25T05:19:54.281Z,-1.20
2019-01-25T05:22:22.728Z,-1.28
2019-01-25T05:24:51.496Z,-1.32
2019-01-25T05:27:19.934Z,-1.34
2019-01-25T05:29:53.289Z,-1.31
2019-01-25T05:32:22.009Z,-1.38
2019-01-25T05:34:50.445Z,-1.13
2019-01-25T05:37:19.047Z,-1.30
2019-01-25T05:39:47.656Z,-1.46
2019-01-25T05:42:16.159Z,-1.34
2019-01-25T05:44:44.595Z,-1.28
2019-01-25T05:47:13.814Z,-1.42
2019-01-25T05:49:42.254Z,-1.22
2019-01-25T05:52:15.931Z,-1.35
2019-01-25T05:54:44.570Z,-1.44
2019-01-25T05:57:13.004Z,-1.44
2019-01-25T05:59:41.444Z,-1.38
2019-01-25T06:02:10.055Z,-1.42
2019-01-25T06:04:39.836Z,-1.35
2019-01-25T06:07:08.336Z,-1.42
2019-01-25T06:09:36.907Z,-1.38
2019-01-25T06:12:05.522Z,-1.37
2019-01-25T06:14:33.980Z,-1.27
2019-01-25T06:17:02.426Z,-1.35
2019-01-25T06:19:34.183Z,-1.38
2019-01-25T06:22:02.618Z,-1.46
2019-01-25T06:24:31.135Z,-1.41
2019-01-25T06:26:59.642Z,-1.33
2019-01-25T06:29:30.889Z,-1.42
2019-01-25T06:31:59.367Z,-1.31
2019-01-25T06:34:27.885Z,-1.43
2019-01-25T06:36:56.324Z,-1.44
2019-01-25T06:39:24.924Z,-1.38
2019-01-25T06:41:53.358Z,-1.38
2019-01-25T06:44:21.798Z,-1.41
2019-01-25T06:46:50.298Z,-1.36
2019-01-25T06:49:18.743Z,-1.28
2019-01-25T06:51:47.202Z,-1.29
2019-01-25T06:54:15.675Z,-1.25
2019-01-25T06:56:44.108Z,-1.21
2019-01-25T06:59:14.178Z,-1.22
2019-01-25T07:01:44.286Z,-0.93
2019-01-25T07:04:12.792Z,-1.07
2019-01-25T07:06:41.300Z,-1.09
2019-01-25T07:09:11.063Z,-1.22
2019-01-25T07:11:42.271Z,-1.21
2019-01-25T07:14:09.803Z,-1.26
2019-01-25T07:16:38.259Z,-1.14
2019-01-25T07:19:06.766Z,-1.32
2019-01-25T07:21:35.211Z,-1.16
2019-01-25T07:24:04.969Z,-1.15
2019-01-25T07:26:33.419Z,-1.25
2019-01-25T07:29:01.885Z,-1.26
2019-01-25T07:31:30.536Z,-1.20
2019-01-25T07:33:59.003Z,-1.24
2019-01-25T07:36:27.451Z,-1.34
2019-01-25T07:38:55.908Z,-1.32
2019-01-25T07:41:24.351Z,-1.23
2019-01-25T07:43:52.832Z,-1.21
2019-01-25T07:46:21.303Z,-1.22
2019-01-25T07:48:49.773Z,-1.21
2019-01-25T07:51:18.239Z,-1.18
2019-01-25T07:53:46.889Z,-1.05
2019-01-25T07:56:15.421Z,-1.05
2019-01-25T07:58:43.861Z,-0.97
2019-01-25T08:01:12.406Z,-1.08
2019-01-25T08:03:40.878Z,-1.06
2019-01-25T08:06:09.380Z,-1.25
2019-01-25T08:08:37.851Z,-1.22
2019-01-25T08:11:06.409Z,-1.21
2019-01-25T08:13:34.826Z,-1.11
2019-01-25T08:16:03.425Z,-1.10
2019-01-25T08:18:32.021Z,-1.09
2019-01-25T08:21:00.499Z,-1.15
2019-01-25T08:23:28.995Z,-0.96
2019-01-25T08:25:57.503Z,-0.96
2019-01-25T08:28:26.080Z,-0.88
2019-01-25T08:30:54.798Z,-0.95
2019-01-25T08:33:23.246Z,-0.98
2019-01-25T08:35:51.673Z,-0.73
2019-01-25T08:38:20.600Z,-0.81
2019-01-25T08:40:49.050Z,-1.00
2019-01-25T08:43:17.531Z,-0.87
2019-01-25T08:45:46.213Z,-0.88
2019-01-25T08:48:14.709Z,-0.71
2019-01-25T08:50:43.147Z,-0.80
2019-01-25T08:53:11.723Z,-0.88
2019-01-25T08:55:40.169Z,-0.95
2019-01-25T08:58:08.620Z,-0.87
2019-01-25T09:00:37.147Z,-0.88
2019-01-25T09:03:05.820Z,-0.81
2019-01-25T09:05:34.757Z,-0.70
2019-01-25T09:08:03.730Z,-0.64
2019-01-25T09:10:32.206Z,-0.84
2019-01-25T09:13:00.717Z,-0.66
2019-01-25T09:15:33.991Z,-0.60
2019-01-25T09:18:02.503Z,-0.54
2019-01-25T09:20:31.007Z,-0.46
2019-01-25T09:22:59.551Z,-0.54
2019-01-25T09:25:28.012Z,-0.44
2019-01-25T09:27:56.467Z,-0.40
2019-01-25T09:30:28.571Z,-0.32
2019-01-25T09:32:57.080Z,-0.35
2019-01-25T09:35:25.656Z,-0.34
2019-01-25T09:37:54.549Z,-0.43
2019-01-25T09:40:25.007Z,-0.35
2019-01-25T09:42:53.618Z,-0.16
2019-01-25T09:45:22.610Z,-0.08
2019-01-25T09:47:52.103Z,-0.24
2019-01-25T09:50:22.477Z,-0.28
2019-01-25T09:52:51.352Z,-0.27
2019-01-25T09:55:24.443Z,-0.28
2019-01-25T09:57:54.226Z,-0.27
2019-01-25T10:00:25.917Z,-0.13
2019-01-25T10:02:54.376Z,-0.10
2019-01-25T10:05:22.930Z,-0.09
2019-01-25T10:07:51.857Z,0.01
2019-01-25T10:10:21.301Z,-0.17
2019-01-25T10:12:49.846Z,-0.05
2019-01-25T10:15:21.451Z,0.03
2019-01-25T10:17:49.885Z,0.09
2019-01-25T10:20:19.049Z,0.18
2019-01-25T10:22:47.765Z,0.25
2019-01-25T10:25:16.366Z,0.39
2019-01-25T10:27:44.868Z,0.61
2019-01-25T10:30:22.305Z,0.51
2019-01-25T10:32:50.810Z,0.50
2019-01-25T10:35:19.977Z,0.71
2019-01-25T10:37:48.883Z,0.67
2019-01-25T10:40:19.743Z,0.82
2019-01-25T10:42:53.426Z,0.67
2019-01-25T10:45:21.501Z,0.79
2019-01-25T10:47:50.009Z,0.76
2019-01-25T10:50:18.518Z,0.97
2019-01-25T10:52:47.142Z,1.05
2019-01-25T10:55:15.713Z,1.15
2019-01-25T10:57:44.485Z,1.40
2019-01-25T11:00:18.451Z,1.83
2019-01-25T11:02:46.950Z,1.68
2019-01-25T11:05:29.051Z,1.65
2019-01-25T11:07:57.616Z,1.79
2019-01-25T11:10:26.116Z,1.58
2019-01-25T11:15:28.553Z,1.77
2019-01-25T11:18:16.362Z,1.80
2019-01-25T11:20:44.805Z,1.88
2019-01-25T11:23:13.244Z,2.33
2019-01-25T11:26:21.612Z,2.09
2019-01-25T11:28:50.044Z,2.31
2019-01-25T11:31:18.477Z,2.13
2019-01-25T11:33:46.954Z,2.17
2019-01-25T11:36:15.387Z,2.23
2019-01-25T11:38:43.821Z,2.22
2019-01-25T11:41:12.346Z,2.36
2019-01-25T11:43:40.781Z,2.64
2019-01-25T11:46:09.214Z,2.75
2019-01-25T11:48:37.669Z,3.09
2019-01-25T11:51:06.102Z,3.05
2019-01-25T11:53:34.569Z,3.01
2019-01-25T11:58:36.605Z,3.10
2019-01-25T12:01:44.976Z,3.17
2019-01-25T12:09:36.946Z,3.23
2019-01-25T12:12:45.320Z,3.02
2019-01-25T12:15:53.662Z,3.01
2019-01-25T12:18:22.240Z,3.12
2019-01-25T12:20:50.667Z,2.88
2019-01-25T12:23:19.099Z,3.02
2019-01-25T12:28:21.467Z,3.03
2019-01-25T12:30:50.033Z,3.10
2019-01-25T12:33:18.465Z,3.12
2019-01-25T12:35:46.918Z,3.16
2019-01-25T12:38:15.376Z,3.08
2019-01-25T12:41:03.122Z,3.23
2019-01-25T12:46:25.022Z,3.25
2019-01-25T12:48:53.476Z,3.20
2019-01-25T12:51:21.989Z,3.08
2019-01-25T12:54:09.778Z,3.09
2019-01-25T12:56:57.552Z,3.09
2019-01-25T12:59:45.239Z,3.12
2019-01-25T13:02:13.735Z,3.08
2019-01-25T13:04:42.159Z,2.97
2019-01-25T13:07:10.635Z,3.00
2019-01-25T13:09:39.064Z,3.04
2019-01-25T13:12:26.760Z,3.12
2019-01-25T13:14:55.183Z,3.09
2019-01-25T13:17:23.610Z,2.93
2019-01-25T13:19:52.062Z,3.17
2019-01-25T13:22:20.483Z,3.20
2019-01-25T13:24:48.913Z,3.05
2019-01-25T13:29:59.460Z,2.94
2019-01-25T13:32:28.003Z,3.00
2019-01-25T13:34:56.438Z,3.16
2019-01-25T13:37:24.944Z,2.96
2019-01-25T13:42:27.775Z,2.95
2019-01-25T13:44:56.216Z,3.14
2019-01-25T13:49:58.880Z,3.04
2019-01-25T13:55:00.911Z,3.13
2019-01-25T13:57:29.337Z,3.22
2019-01-25T14:02:31.574Z,3.05
2019-01-25T14:05:00.034Z,3.30
2019-01-25T14:07:28.464Z,3.15
2019-01-25T14:09:56.897Z,3.05
2019-01-25T14:14:58.933Z,3.07
2019-01-25T14:17:27.372Z,3.43
2019-01-25T14:19:55.830Z,3.07
2019-01-25T14:22:24.277Z,3.09
2019-01-25T14:24:52.716Z,2.98
2019-01-25T14:27:21.252Z,3.01
2019-01-25T14:29:49.739Z,3.09
2019-01-25T14:32:18.113Z,3.12
2019-01-25T14:34:46.569Z,3.08
2019-01-25T14:43:16.809Z,3.07
2019-01-25T14:45:45.242Z,2.94
2019-01-25T14:50:47.595Z,2.88
2019-01-25T14:53:35.365Z,2.92
2019-01-25T14:56:03.869Z,3.04
2019-01-25T14:58:32.298Z,2.88
2019-01-25T15:01:00.761Z,2.84
2019-01-25T15:03:29.185Z,2.79
2019-01-25T15:06:17.057Z,2.98
2019-01-25T15:08:45.479Z,2.92
2019-01-25T15:11:13.929Z,2.91
2019-01-25T15:13:42.408Z,2.89
2019-01-25T15:16:10.827Z,2.87
2019-01-25T15:21:51.668Z,2.94
2019-01-25T15:24:20.124Z,2.81
2019-01-25T15:26:48.552Z,2.76
2019-01-25T15:29:36.211Z,2.79
2019-01-25T15:32:44.559Z,2.62
2019-01-25T15:35:53.066Z,2.58
2019-01-25T15:38:21.549Z,2.57
2019-01-25T15:40:50.053Z,2.49
2019-01-25T15:49:05.181Z,2.36
2019-01-25T15:51:33.617Z,2.32
2019-01-25T15:54:02.053Z,2.30
2019-01-25T15:59:05.168Z,2.31
2019-01-25T16:04:07.285Z,2.19
2019-01-25T16:06:35.712Z,2.16
2019-01-25T16:09:23.868Z,2.17
2019-01-25T16:11:53.778Z,2.25
2019-01-25T16:14:22.974Z,2.28
2019-01-25T16:16:52.461Z,2.21
2019-01-25T16:19:20.892Z,2.19
2019-01-25T16:21:49.326Z,2.13
2019-01-25T16:24:17.793Z,2.17
2019-01-25T16:26:46.247Z,2.19
2019-01-25T16:29:33.989Z,2.23
2019-01-25T16:32:02.421Z,2.24
2019-01-25T16:34:30.853Z,2.16
2019-01-25T16:36:59.321Z,2.18
2019-01-25T16:39:27.752Z,2.16
2019-01-25T16:41:56.182Z,2.34
2019-01-25T16:44:43.978Z,2.23
2019-01-25T16:49:59.909Z,2.25
2019-01-25T16:52:28.348Z,2.15
2019-01-25T16:54:56.778Z,2.16
2019-01-25T16:59:59.535Z,2.16
2019-01-25T17:02:47.261Z,2.17
2019-01-25T17:08:23.860Z,2.12
2019-01-25T17:10:52.289Z,2.25
2019-01-25T17:13:20.721Z,2.14
2019-01-25T17:18:42.763Z,2.21
2019-01-25T17:21:11.214Z,2.13
2019-01-25T17:23:39.645Z,2.12
2019-01-25T17:26:08.076Z,2.22
2019-01-25T17:31:10.830Z,2.21
2019-01-25T17:36:13.758Z,2.29
2019-01-25T17:38:42.215Z,2.35
2019-01-25T17:41:50.567Z,2.32
2019-01-25T17:46:52.713Z,2.28
2019-01-25T17:52:14.958Z,2.24
2019-01-25T17:54:43.424Z,2.20
2019-01-25T17:57:31.047Z,2.12
2019-01-25T17:59:59.505Z,2.06
2019-01-25T18:02:47.060Z,2.11
2019-01-25T18:05:34.957Z,2.11
2019-01-25T18:08:03.460Z,2.08
2019-01-25T18:10:31.972Z,2.07
2019-01-25T18:13:00.425Z,2.04
2019-01-25T18:15:28.857Z,2.05
2019-01-25T18:17:57.292Z,1.98
2019-01-25T18:20:45.082Z,2.09
2019-01-25T18:23:13.515Z,2.02
2019-01-25T18:26:21.888Z,2.07
2019-01-25T18:29:30.242Z,2.00
2019-01-25T18:34:32.177Z,1.89
2019-01-25T18:37:00.613Z,1.99
2019-01-25T18:39:29.082Z,1.92
2019-01-25T18:41:57.519Z,2.00
2019-01-25T18:44:25.952Z,2.01
2019-01-25T18:46:54.407Z,2.03
2019-01-25T18:49:22.840Z,1.96
2019-01-25T18:51:51.270Z,1.97
2019-01-25T18:54:19.804Z,1.94
2019-01-25T18:56:48.237Z,2.00
2019-01-25T18:59:16.669Z,2.13
2019-01-25T19:02:04.541Z,1.93
2019-01-25T19:04:32.982Z,1.87
2019-01-25T19:07:20.562Z,1.79
2019-01-25T19:10:08.200Z,1.90
2019-01-25T19:12:55.969Z,1.91
2019-01-25T19:16:04.344Z,1.80
2019-01-25T19:21:26.567Z,1.88
2019-01-25T19:24:14.366Z,1.87
2019-01-25T19:27:02.046Z,1.89
2019-01-25T19:44:08.119Z,1.73
2019-01-25T19:46:55.754Z,1.89
2019-01-25T19:51:58.292Z,1.74
2019-01-25T19:54:26.753Z,1.68
2019-01-25T19:56:55.387Z,1.69
2019-01-25T19:59:43.159Z,1.89
2019-01-25T20:05:46.261Z,1.70
2019-01-25T20:11:22.972Z,1.62
2019-01-25T20:14:10.747Z,1.72
2019-01-25T20:16:39.427Z,1.75
2019-01-25T20:25:07.789Z,1.63
2019-01-25T20:27:55.790Z,1.76
2019-01-25T20:30:49.563Z,1.69
2019-01-25T20:33:33.241Z,1.55
2019-01-25T20:36:20.903Z,1.44
2019-01-25T20:39:08.732Z,1.41
2019-01-25T20:41:56.498Z,1.44
2019-01-25T20:44:25.067Z,1.42
2019-01-25T20:47:12.859Z,1.44
2019-01-25T20:50:00.584Z,1.45
2019-01-25T20:52:48.310Z,1.46
2019-01-25T20:55:56.824Z,1.52
2019-01-25T20:58:44.607Z,1.52
2019-01-25T21:01:13.083Z,1.63
2019-01-25T21:04:00.867Z,1.63
2019-01-25T21:06:48.576Z,1.68
2019-01-25T21:09:36.362Z,1.72
2019-01-25T21:12:24.195Z,1.64
2019-01-25T21:15:11.861Z,1.73
2019-01-25T21:17:40.483Z,1.73
2019-01-25T21:20:47.511Z,1.81
2019-01-25T21:23:35.464Z,1.90
2019-01-25T21:29:12.172Z,1.88
2019-01-25T21:31:40.607Z,1.82
2019-01-25T21:34:09.045Z,1.87
2019-01-25T21:36:56.773Z,1.80
2019-01-25T21:39:44.409Z,1.80
2019-01-25T21:42:12.898Z,1.90
2019-01-25T21:44:41.349Z,1.98
2019-01-25T21:47:09.782Z,1.89
2019-01-25T21:49:38.253Z,1.85
2019-01-25T21:52:25.880Z,1.87
2019-01-25T21:54:54.351Z,1.86
2019-01-25T21:57:42.108Z,1.89
2019-01-25T22:00:50.488Z,1.86
2019-01-25T22:03:38.251Z,1.76
2019-01-25T22:06:25.887Z,1.83
2019-01-25T22:09:13.526Z,1.91
2019-01-25T22:14:15.553Z,2.02
2019-01-25T22:19:18.476Z,1.76
2019-01-25T22:24:21.091Z,2.23
2019-01-25T22:26:49.593Z,2.05
2019-01-25T22:29:18.045Z,2.00
2019-01-25T22:31:46.475Z,2.17
2019-01-25T22:36:48.445Z,2.06
2019-01-25T22:39:16.880Z,1.97
2019-01-25T22:44:39.371Z,1.98
2019-01-25T22:47:07.871Z,1.96
2019-01-25T22:49:55.549Z,1.94
2019-01-25T22:52:24.013Z,1.95
2019-01-25T22:54:52.447Z,1.73
2019-01-25T23:00:54.970Z,1.81
2019-01-25T23:04:03.365Z,1.95
2019-01-25T23:06:51.117Z,1.87
2019-01-25T23:09:59.530Z,1.74
2019-01-25T23:12:27.957Z,1.78
2019-01-25T23:15:15.702Z,1.86
2019-01-25T23:18:03.448Z,1.82
2019-01-25T23:20:31.925Z,1.93
2019-01-25T23:23:19.542Z,1.86
2019-01-25T23:25:48.012Z,1.84
2019-01-25T23:28:16.439Z,1.94
2019-01-25T23:30:44.886Z,1.84
2019-01-25T23:33:32.678Z,1.73
2019-01-25T23:36:01.174Z,1.87
2019-01-25T23:38:29.613Z,1.94
2019-01-25T23:41:17.352Z,1.88
2019-01-25T23:43:45.784Z,1.76
2019-01-25T23:46:33.561Z,1.76
2019-01-25T23:49:01.997Z,1.82
2019-01-25T23:51:30.428Z,1.87
2019-01-25T23:53:58.892Z,1.93
2019-01-25T23:56:27.327Z,1.94
2019-01-25T23:58:55.756Z,1.89
